Time;durP1;ratioP1;P1;durP2;ratioP2;P2;SDS_P1;SDS_P2;PMS_P1;PMS_P2;Temp;Humidity;BMP_temperature;BMP_pressure;BME280_temperature;BME280_humidity;BME280_pressure;Samples;Min_cycle;Max_cycle;Signal;HPM_P1;HPM_P2
2021/12/20 00:00:00;;;;;;;3.90;1.50;;;;;;;2.01;68.50;99731.50;103387;1317;22563;-76
2021/12/20 00:02:27;;;;;;;2.30;1.60;;;;;;;1.97;68.37;99725.88;103604;1316;25303;-77
2021/12/20 00:04:54;;;;;;;3.60;1.70;;;;;;;1.98;68.15;99723.98;103627;1316;25545;-79
2021/12/20 00:07:21;;;;;;;3.60;1.70;;;;;;;1.95;68.05;99725.87;103859;1315;25595;-77
2021/12/20 00:09:48;;;;;;;4.30;1.80;;;;;;;1.96;68.04;99729.86;103511;1315;22642;-76
2021/12/20 00:12:15;;;;;;;4.80;1.80;;;;;;;1.96;67.99;99730.90;103286;1316;22700;-77
2021/12/20 00:14:42;;;;;;;2.50;1.40;;;;;;;1.91;67.98;99726.48;103654;1316;23970;-78
2021/12/20 00:17:09;;;;;;;4.10;1.60;;;;;;;1.97;67.96;99723.80;103532;1317;26067;-76
2021/12/20 00:19:36;;;;;;;2.60;1.80;;;;;;;1.97;67.91;99720.33;103612;1316;25647;-77
2021/12/20 00:22:03;;;;;;;3.10;1.70;;;;;;;1.99;67.94;99729.38;103614;1316;22926;-77
2021/12/20 00:24:30;;;;;;;4.40;2.20;;;;;;;1.98;67.91;99723.11;103355;1316;22758;-78
2021/12/20 00:26:57;;;;;;;5.10;1.90;;;;;;;1.97;67.85;99732.31;103649;1315;22600;-76
2021/12/20 00:29:24;;;;;;;2.70;1.70;;;;;;;1.94;67.72;99724.09;103569;1315;25242;-80
2021/12/20 00:31:51;;;;;;;3.30;1.80;;;;;;;1.91;67.73;99730.30;103637;1316;24211;-77
2021/12/20 00:34:18;;;;;;;4.80;2.10;;;;;;;1.92;67.89;99736.40;103508;1316;22645;-79
2021/12/20 00:36:45;;;;;;;4.20;1.80;;;;;;;1.90;67.94;99729.07;102995;1322;26540;-77
2021/12/20 00:41:58;;;;;;;4.70;1.90;;;;;;;1.87;67.92;99733.02;103734;1322;25250;-79
2021/12/20 00:44:25;;;;;;;3.70;2.20;;;;;;;1.86;68.15;99732.48;103059;1323;22571;-77
2021/12/20 00:46:54;;;;;;;4.20;1.90;;;;;;;1.85;68.07;99737.52;103408;1317;25637;-77
2021/12/20 00:49:21;;;;;;;4.00;1.90;;;;;;;1.84;67.94;99736.45;102834;1325;24228;-78
2021/12/20 00:51:47;;;;;;;8.00;2.00;;;;;;;1.79;67.99;99737.77;102950;1322;25517;-78
2021/12/20 00:54:14;;;;;;;2.60;1.40;;;;;;;1.77;68.23;99744.84;102236;1322;24459;-81
2021/12/20 00:56:41;;;;;;;4.90;2.00;;;;;;;1.77;68.25;99741.02;103097;1322;24306;-79
2021/12/20 00:59:08;;;;;;;5.00;1.60;;;;;;;1.76;68.37;99739.97;103041;1322;22776;-77
2021/12/20 01:01:35;;;;;;;4.10;1.80;;;;;;;1.77;68.23;99738.58;103056;1322;24222;-79
2021/12/20 01:04:03;;;;;;;6.70;1.90;;;;;;;1.78;68.38;99744.17;103303;1322;22560;-78
2021/12/20 01:06:31;;;;;;;2.10;1.30;;;;;;;1.77;68.26;99746.59;103345;1323;22847;-77
2021/12/20 01:08:58;;;;;;;4.90;1.70;;;;;;;1.74;68.12;99745.14;103151;1323;23074;-77
2021/12/20 01:11:27;;;;;;;6.10;1.90;;;;;;;1.72;68.29;99745.11;103283;1321;24218;-78
2021/12/20 01:13:55;;;;;;;3.30;1.70;;;;;;;1.70;68.23;99744.56;103480;1322;22907;-77
2021/12/20 01:16:31;;;;;;;4.40;2.00;;;;;;;1.67;68.45;99745.73;103188;1323;23592;-78
2021/12/20 01:18:58;;;;;;;3.70;1.70;;;;;;;1.68;68.43;99748.52;104429;1321;25239;-78
2021/12/20 01:21:27;;;;;;;3.20;1.50;;;;;;;1.63;68.36;99742.34;103319;1322;24253;-78
2021/12/20 01:23:53;;;;;;;5.90;2.00;;;;;;;1.63;68.42;99744.45;103854;1322;23770;-76
2021/12/20 01:26:20;;;;;;;2.10;1.40;;;;;;;1.64;68.48;99740.45;103691;1323;22731;-77
2021/12/20 01:28:47;;;;;;;3.60;1.60;;;;;;;1.65;68.51;99744.47;105091;1321;22598;-77
2021/12/20 01:31:14;;;;;;;3.50;1.40;;;;;;;1.66;68.59;99741.38;105320;1317;22605;-77
2021/12/20 01:33:41;;;;;;;4.10;1.90;;;;;;;1.68;68.44;99747.64;103764;1317;22741;-77
2021/12/20 01:36:08;;;;;;;2.40;1.30;;;;;;;1.65;68.40;99741.17;103555;1310;25255;-77
2021/12/20 01:38:35;;;;;;;3.00;1.80;;;;;;;1.65;68.57;99742.22;103509;1317;25243;-77
2021/12/20 01:41:03;;;;;;;3.70;1.70;;;;;;;1.66;68.45;99746.40;103373;1317;22583;-78
2021/12/20 01:43:30;;;;;;;3.70;1.80;;;;;;;1.65;68.51;99742.75;103665;1317;25239;-78
2021/12/20 01:45:59;;;;;;;5.50;2.10;;;;;;;1.64;68.42;99748.10;103450;1317;22702;-78
2021/12/20 01:48:26;;;;;;;4.70;1.80;;;;;;;1.66;68.42;99745.19;104441;1317;22821;-76
2021/12/20 01:53:35;;;;;;;3.80;2.00;;;;;;;1.68;68.66;99746.96;105544;1317;25900;-77
2021/12/20 01:56:04;;;;;;;4.00;2.00;;;;;;;1.69;68.59;99746.63;105773;1316;25688;-74
2021/12/20 01:58:32;;;;;;;4.30;1.70;;;;;;;1.68;68.50;99741.23;105132;1317;25246;-76
2021/12/20 02:03:42;;;;;;;4.00;1.90;;;;;;;1.66;68.55;99748.14;104218;1317;22679;-77
2021/12/20 02:06:19;;;;;;;3.50;1.50;;;;;;;1.63;68.49;99750.68;103956;1317;22571;-79
2021/12/20 02:08:47;;;;;;;2.70;1.60;;;;;;;1.60;68.59;99749.43;104016;1317;24304;-80
2021/12/20 02:11:17;;;;;;;3.70;1.60;;;;;;;1.62;68.83;99747.89;103789;1317;25229;-79
2021/12/20 02:13:44;;;;;;;1.80;1.20;;;;;;;1.62;68.72;99745.81;103452;1317;22792;-79
2021/12/20 02:16:11;;;;;;;4.40;1.60;;;;;;;1.60;68.75;99747.88;104029;1317;24107;-80
2021/12/20 02:18:38;;;;;;;3.60;1.50;;;;;;;1.56;68.65;99742.23;103522;1317;24282;-79
2021/12/20 02:21:05;;;;;;;3.40;1.60;;;;;;;1.51;68.83;99743.03;103718;1317;26544;-79
2021/12/20 02:23:33;;;;;;;3.30;1.60;;;;;;;1.48;68.93;99735.85;103556;1317;25445;-79
2021/12/20 02:26:00;;;;;;;5.00;2.20;;;;;;;1.46;69.09;99741.55;103325;1317;23387;-78
2021/12/20 02:28:34;;;;;;;3.30;1.50;;;;;;;1.48;69.14;99738.81;103624;1317;23187;-79
2021/12/20 02:39:20;;;;;;;2.80;1.50;;;;;;;1.47;69.62;99733.77;103649;1316;24736;-80
2021/12/20 02:41:47;;;;;;;3.10;1.60;;;;;;;1.45;69.55;99736.68;103499;1317;25837;-81
2021/12/20 02:44:19;;;;;;;3.80;2.00;;;;;;;1.49;69.79;99740.03;103384;1317;23968;-79
2021/12/20 02:47:05;;;;;;;4.10;1.90;;;;;;;1.49;69.89;99732.06;103580;1316;22635;-82
2021/12/20 02:49:33;;;;;;;3.40;1.20;;;;;;;1.46;69.80;99728.54;103341;1318;24221;-80
2021/12/20 02:52:07;;;;;;;2.50;1.30;;;;;;;1.44;70.00;99728.33;103338;1317;23892;-77
2021/12/20 02:54:35;;;;;;;4.10;1.50;;;;;;;1.44;70.11;99732.14;103216;1316;25287;-77
2021/12/20 02:57:04;;;;;;;5.00;1.60;;;;;;;1.42;70.28;99726.57;103545;1317;24219;-76
2021/12/20 02:59:31;;;;;;;5.30;1.70;;;;;;;1.40;70.47;99723.23;103589;1315;23027;-78
2021/12/20 03:02:01;;;;;;;3.60;1.80;;;;;;;1.38;70.91;99716.25;103671;1315;22531;-78
2021/12/20 03:04:29;;;;;;;2.70;1.40;;;;;;;1.38;71.20;99709.83;103581;1316;25255;-78
2021/12/20 03:07:00;;;;;;;3.10;1.40;;;;;;;1.36;71.21;99704.77;103640;1314;22717;-76
2021/12/20 03:09:32;;;;;;;3.50;1.60;;;;;;;1.33;71.42;99707.67;103362;1316;24793;-76
2021/12/20 03:12:01;;;;;;;7.20;1.70;;;;;;;1.34;71.46;99705.59;103237;1318;22577;-77
2021/12/20 03:14:34;;;;;;;3.50;1.70;;;;;;;1.32;71.37;99706.09;103479;1316;22574;-75
2021/12/20 03:17:01;;;;;;;3.70;1.50;;;;;;;1.31;71.53;99703.29;103337;1317;24315;-76
2021/12/20 03:19:29;;;;;;;2.40;1.60;;;;;;;1.35;71.48;99704.92;103142;1318;25317;-76
2021/12/20 03:21:57;;;;;;;2.50;1.50;;;;;;;1.36;71.39;99705.64;103156;1315;22806;-77
2021/12/20 03:24:24;;;;;;;3.40;1.80;;;;;;;1.36;71.40;99705.13;103417;1317;22588;-76
2021/12/20 03:26:51;;;;;;;3.80;1.40;;;;;;;1.36;71.44;99701.64;103351;1316;25435;-77
2021/12/20 03:29:18;;;;;;;2.70;1.60;;;;;;;1.34;71.30;99699.87;103517;1316;22707;-77
2021/12/20 03:31:45;;;;;;;5.70;1.80;;;;;;;1.36;71.38;99710.48;103486;1316;25362;-78
2021/12/20 03:34:13;;;;;;;2.10;1.40;;;;;;;1.38;71.53;99704.29;103802;1316;22648;-78
2021/12/20 03:36:40;;;;;;;4.00;1.40;;;;;;;1.38;71.46;99708.27;103777;1316;23141;-76
2021/12/20 03:39:08;;;;;;;2.60;1.50;;;;;;;1.38;71.49;99706.70;104139;1316;22736;-76
2021/12/20 03:41:36;;;;;;;4.60;1.90;;;;;;;1.36;71.60;99707.38;104370;1315;24368;-77
2021/12/20 03:44:06;;;;;;;2.20;1.50;;;;;;;1.33;71.64;99708.71;105385;1316;23250;-75
2021/12/20 03:46:34;;;;;;;3.10;1.10;;;;;;;1.29;71.63;99709.34;105122;1313;25375;-78
2021/12/20 03:49:03;;;;;;;3.30;1.30;;;;;;;1.28;71.95;99706.70;103844;1316;22792;-81
2021/12/20 03:51:30;;;;;;;2.30;1.40;;;;;;;1.28;72.10;99702.70;103705;1316;22580;-80
2021/12/20 03:53:58;;;;;;;2.70;1.20;;;;;;;1.27;72.14;99702.52;102970;1324;25573;-78
2021/12/20 03:56:25;;;;;;;3.40;1.40;;;;;;;1.27;72.28;99696.98;102911;1326;22774;-76
2021/12/20 03:58:53;;;;;;;2.80;1.00;;;;;;;1.27;72.28;99704.79;103062;1324;24276;-81
2021/12/20 04:01:20;;;;;;;5.00;1.70;;;;;;;1.29;72.45;99711.92;102797;1324;22570;-79
2021/12/20 04:03:49;;;;;;;4.00;1.40;;;;;;;1.27;72.56;99707.20;103002;1323;22591;-81
2021/12/20 04:06:17;;;;;;;2.60;1.50;;;;;;;1.22;72.90;99710.77;103027;1323;23413;-81
2021/12/20 04:08:46;;;;;;;2.60;1.20;;;;;;;1.23;73.06;99706.45;102779;1324;22660;-80
2021/12/20 04:11:12;;;;;;;2.90;1.10;;;;;;;1.26;73.27;99712.39;102966;1322;25437;-76
2021/12/20 04:13:39;;;;;;;3.20;1.80;;;;;;;1.20;73.71;99708.81;103435;1316;25386;-79
2021/12/20 04:16:06;;;;;;;2.70;1.20;;;;;;;1.14;74.18;99701.42;103503;1316;23155;-77
2021/12/20 04:18:34;;;;;;;4.60;1.40;;;;;;;1.13;74.31;99700.21;103476;1316;22687;-76
2021/12/20 04:21:06;;;;;;;1.80;1.10;;;;;;;1.16;74.50;99709.80;103539;1316;25474;-78
2021/12/20 04:23:33;;;;;;;3.30;1.80;;;;;;;1.16;74.41;99709.27;103903;1316;22643;-81
2021/12/20 04:26:00;;;;;;;2.20;1.20;;;;;;;1.15;74.69;99721.92;103663;1312;24294;-78
2021/12/20 04:28:26;;;;;;;4.00;1.70;;;;;;;1.13;75.03;99718.42;103605;1317;22724;-77
2021/12/20 04:30:54;;;;;;;2.00;1.30;;;;;;;1.11;75.19;99711.27;103651;1316;22641;-77
2021/12/20 04:33:21;;;;;;;1.40;0.90;;;;;;;1.12;75.24;99717.02;103655;1316;24786;-81
2021/12/20 04:35:48;;;;;;;3.00;0.90;;;;;;;1.11;75.38;99711.96;103577;1316;25274;-81
2021/12/20 04:38:17;;;;;;;1.00;1.00;;;;;;;1.13;75.28;99707.66;103689;1316;25316;-78
2021/12/20 04:40:44;;;;;;;2.40;1.00;;;;;;;1.19;75.33;99710.54;103510;1316;24927;-77
2021/12/20 04:43:11;;;;;;;0.90;0.80;;;;;;;1.23;75.39;99712.52;103629;1315;23027;-78
2021/12/20 04:45:38;;;;;;;2.10;1.40;;;;;;;1.18;75.52;99708.61;103612;1316;25496;-79
2021/12/20 04:48:06;;;;;;;1.70;1.20;;;;;;;1.15;75.61;99708.73;103697;1312;22571;-80
2021/12/20 04:50:34;;;;;;;2.20;1.10;;;;;;;1.17;75.76;99716.23;103114;1317;24179;-79
2021/12/20 04:53:03;;;;;;;1.70;1.20;;;;;;;1.19;75.86;99725.27;103454;1316;26610;-81
2021/12/20 04:55:30;;;;;;;2.60;1.20;;;;;;;1.18;76.03;99726.66;103526;1314;25253;-80
2021/12/20 04:57:59;;;;;;;1.60;1.10;;;;;;;1.17;76.15;99730.10;103781;1316;25383;-78
2021/12/20 05:00:29;;;;;;;1.90;1.00;;;;;;;1.19;76.13;99726.85;103612;1314;22610;-79
2021/12/20 05:02:58;;;;;;;1.30;1.10;;;;;;;1.19;76.26;99728.08;103239;1317;25360;-80
2021/12/20 05:05:28;;;;;;;2.90;1.20;;;;;;;1.25;76.26;99724.88;103614;1316;22863;-78
2021/12/20 05:07:59;;;;;;;1.30;0.90;;;;;;;1.27;76.42;99734.61;103121;1317;26514;-81
2021/12/20 05:10:30;;;;;;;1.20;1.10;;;;;;;1.16;76.68;99722.46;103453;1309;24435;-78
2021/12/20 05:12:59;;;;;;;1.90;1.50;;;;;;;1.13;76.85;99735.06;102983;1320;26533;-79
2021/12/20 05:15:27;;;;;;;2.60;1.40;;;;;;;1.13;76.99;99748.09;103094;1322;22589;-79
2021/12/20 05:17:56;;;;;;;2.00;1.40;;;;;;;1.12;77.08;99746.31;103175;1318;22989;-76
2021/12/20 05:20:24;;;;;;;4.60;2.10;;;;;;;1.10;77.38;99745.23;103133;1319;26671;-76
2021/12/20 05:22:51;;;;;;;2.50;1.20;;;;;;;1.10;77.42;99746.45;103118;1317;24310;-76
2021/12/20 05:25:18;;;;;;;3.80;1.70;;;;;;;1.15;77.48;99757.13;102933;1321;25554;-76
2021/12/20 05:27:46;;;;;;;3.90;1.60;;;;;;;1.15;77.36;99753.67;103104;1322;22724;-76
2021/12/20 05:30:14;;;;;;;3.40;1.90;;;;;;;1.12;77.53;99752.40;102835;1325;24725;-77
2021/12/20 05:32:43;;;;;;;2.90;1.70;;;;;;;1.11;77.64;99759.66;103208;1317;24169;-82
2021/12/20 05:35:13;;;;;;;2.20;1.70;;;;;;;1.13;77.71;99765.42;103053;1323;22612;-75
2021/12/20 05:37:41;;;;;;;4.60;2.00;;;;;;;1.18;77.96;99770.37;102756;1318;24463;-75
2021/12/20 05:40:10;;;;;;;3.10;1.80;;;;;;;1.14;77.96;99778.27;102665;1326;25324;-74
2021/12/20 05:42:37;;;;;;;4.00;2.10;;;;;;;1.11;78.13;99781.52;102469;1325;25468;-75
2021/12/20 05:45:05;;;;;;;3.10;2.00;;;;;;;1.16;78.22;99782.99;102655;1326;23264;-74
2021/12/20 05:47:32;;;;;;;4.10;2.00;;;;;;;1.20;78.22;99779.95;102924;1322;22600;-74
2021/12/20 05:50:00;;;;;;;3.00;1.90;;;;;;;1.22;78.30;99782.94;103300;1322;24219;-75
2021/12/20 05:52:26;;;;;;;6.90;2.10;;;;;;;1.22;78.43;99783.27;103317;1317;22686;-77
2021/12/20 05:54:53;;;;;;;4.00;2.00;;;;;;;1.19;78.50;99782.17;103116;1321;26684;-76
2021/12/20 05:57:20;;;;;;;5.60;2.60;;;;;;;1.15;78.66;99788.86;103348;1317;22922;-75
2021/12/20 05:59:47;;;;;;;2.50;1.70;;;;;;;1.10;79.00;99796.23;103360;1317;23303;-77
2021/12/20 06:02:14;;;;;;;2.20;1.70;;;;;;;1.07;79.04;99802.41;103721;1312;22571;-76
2021/12/20 06:04:41;;;;;;;2.80;1.80;;;;;;;1.11;79.37;99802.48;103958;1315;22554;-74
2021/12/20 06:07:09;;;;;;;2.70;1.80;;;;;;;1.17;79.26;99810.60;103562;1315;26643;-75
2021/12/20 06:09:36;;;;;;;4.10;1.90;;;;;;;1.11;79.20;99813.42;103581;1315;25470;-75
2021/12/20 06:12:03;;;;;;;4.40;2.20;;;;;;;1.08;79.32;99823.42;103263;1313;22962;-75
2021/12/20 06:14:30;;;;;;;3.40;2.30;;;;;;;1.10;79.64;99826.75;103432;1316;197376;-76
2021/12/20 06:16:58;;;;;;;8.70;3.50;;;;;;;1.14;79.44;99821.11;103554;1316;25230;-77
2021/12/20 06:19:27;;;;;;;3.20;2.30;;;;;;;1.18;79.40;99818.25;103646;1316;23968;-75
2021/12/20 06:21:55;;;;;;;4.30;2.40;;;;;;;1.15;79.25;99820.10;103729;1316;25258;-76
2021/12/20 06:24:23;;;;;;;4.40;2.30;;;;;;;1.18;79.20;99826.55;103736;1316;24329;-79
2021/12/20 06:26:51;;;;;;;6.20;2.60;;;;;;;1.19;79.10;99833.52;103694;1316;24720;-75
2021/12/20 06:29:19;;;;;;;4.90;2.60;;;;;;;1.16;78.95;99837.46;103548;1316;23525;-77
2021/12/20 06:31:46;;;;;;;3.50;2.10;;;;;;;1.18;79.03;99846.17;103037;1322;24315;-80
2021/12/20 06:34:14;;;;;;;4.20;2.90;;;;;;;1.19;78.89;99848.44;103181;1321;25445;-79
2021/12/20 06:36:41;;;;;;;6.10;3.00;;;;;;;1.18;78.99;99849.64;103314;1322;22724;-80
2021/12/20 06:39:08;;;;;;;4.70;2.80;;;;;;;1.21;79.04;99851.61;103237;1316;24386;-83
2021/12/20 06:41:35;;;;;;;6.20;2.90;;;;;;;1.22;78.78;99856.32;103400;1316;25264;-79
2021/12/20 06:44:04;;;;;;;5.40;3.00;;;;;;;1.19;78.67;99861.81;103182;1322;22891;-81
2021/12/20 06:46:37;;;;;;;5.00;3.00;;;;;;;1.23;78.75;99868.29;103289;1316;22566;-80
2021/12/20 06:49:09;;;;;;;4.00;2.60;;;;;;;1.30;78.76;99862.18;103284;1317;22799;-80
2021/12/20 06:51:42;;;;;;;4.60;3.10;;;;;;;1.32;78.39;99866.23;103624;1316;22562;-80
2021/12/20 06:54:12;;;;;;;5.20;2.60;;;;;;;1.31;78.47;99868.81;103444;1314;24260;-80
2021/12/20 06:56:43;;;;;;;1.90;1.60;;;;;;;1.31;78.42;99866.04;103555;1314;22583;-81
2021/12/20 06:59:11;;;;;;;2.10;1.90;;;;;;;1.31;78.26;99869.16;103326;1318;22609;-79
2021/12/20 07:01:38;;;;;;;3.30;1.90;;;;;;;1.27;78.34;99870.27;103384;1316;22597;-77
2021/12/20 07:04:05;;;;;;;2.70;2.00;;;;;;;1.27;78.53;99876.02;103290;1312;25284;-78
2021/12/20 07:06:34;;;;;;;4.40;2.20;;;;;;;1.27;78.65;99879.84;103496;1316;23902;-80
2021/12/20 07:09:01;;;;;;;2.70;2.10;;;;;;;1.30;78.66;99887.53;103631;1313;25672;-82
2021/12/20 07:11:28;;;;;;;3.30;2.30;;;;;;;1.35;78.58;99882.77;103649;1313;24208;-83
2021/12/20 07:13:55;;;;;;;5.40;2.40;;;;;;;1.36;78.41;99881.58;103656;1313;26612;-82
2021/12/20 07:16:23;;;;;;;3.60;2.60;;;;;;;1.39;78.57;99885.44;103459;1316;22637;-78
2021/12/20 07:18:50;;;;;;;2.80;2.40;;;;;;;1.45;78.39;99891.11;103595;1313;22583;-79
2021/12/20 07:21:18;;;;;;;4.30;2.70;;;;;;;1.46;77.98;99897.02;103331;1317;25230;-79
2021/12/20 07:23:46;;;;;;;5.80;2.40;;;;;;;1.46;78.06;99897.91;103348;1317;22658;-82
2021/12/20 07:26:13;;;;;;;5.00;2.70;;;;;;;1.52;78.05;99900.44;103545;1316;24088;-80
2021/12/20 07:28:42;;;;;;;3.00;2.10;;;;;;;1.60;77.99;99903.73;103504;1316;22718;-78
2021/12/20 07:31:11;;;;;;;6.70;2.50;;;;;;;1.65;77.86;99910.95;103486;1317;22629;-78
2021/12/20 07:33:39;;;;;;;7.80;2.60;;;;;;;1.64;77.68;99908.66;103888;1315;22787;-78
2021/12/20 07:36:06;;;;;;;9.80;2.80;;;;;;;1.65;77.55;99904.16;103610;1316;25413;-81
2021/12/20 07:38:37;;;;;;;4.90;2.50;;;;;;;1.67;77.49;99904.55;103992;1309;23479;-81
2021/12/20 07:41:04;;;;;;;3.60;2.10;;;;;;;1.68;77.47;99906.30;103594;1309;22570;-75
2021/12/20 07:43:31;;;;;;;2.60;1.90;;;;;;;1.69;77.35;99908.25;104438;1312;22555;-77
2021/12/20 07:45:58;;;;;;;1.80;1.70;;;;;;;1.66;77.27;99907.50;104531;1316;24292;-81
2021/12/20 07:48:26;;;;;;;2.10;2.00;;;;;;;1.57;77.28;99907.31;104394;1310;22596;-83
2021/12/20 07:50:53;;;;;;;2.40;2.20;;;;;;;1.54;77.37;99908.30;104234;1315;23363;-81
2021/12/20 07:53:20;;;;;;;2.70;1.70;;;;;;;1.57;77.52;99913.56;103917;1312;25256;-81
2021/12/20 07:55:47;;;;;;;3.10;2.30;;;;;;;1.55;77.33;99916.13;104656;1313;22758;-82
2021/12/20 07:58:16;;;;;;;1.90;1.80;;;;;;;1.55;77.45;99916.30;105469;1316;22601;-78
2021/12/20 08:00:43;;;;;;;4.10;2.10;;;;;;;1.54;77.49;99918.20;105292;1315;23932;-80
2021/12/20 08:03:12;;;;;;;2.50;2.20;;;;;;;1.60;77.43;99915.36;103065;1322;22690;-79
2021/12/20 08:05:40;;;;;;;3.10;2.60;;;;;;;1.65;77.21;99927.78;103405;1322;24413;-79
2021/12/20 08:08:07;;;;;;;3.30;2.30;;;;;;;1.69;77.23;99935.52;103410;1322;22623;-79
2021/12/20 08:10:34;;;;;;;2.70;2.20;;;;;;;1.73;77.32;99937.48;103062;1322;25552;-79
2021/12/20 08:13:02;;;;;;;4.00;2.80;;;;;;;1.78;77.34;99933.42;103477;1316;24410;-78
2021/12/20 08:15:29;;;;;;;3.50;2.50;;;;;;;1.81;77.11;99934.52;103660;1315;23232;-78
2021/12/20 08:17:57;;;;;;;2.40;2.20;;;;;;;1.85;77.13;99938.40;103563;1316;25327;-79
2021/12/20 08:20:24;;;;;;;3.20;2.30;;;;;;;1.86;76.91;99941.73;103627;1316;23212;-81
2021/12/20 08:22:52;;;;;;;3.20;2.30;;;;;;;1.86;76.81;99944.68;103359;1316;25285;-78
2021/12/20 08:25:19;;;;;;;2.50;2.30;;;;;;;1.82;76.75;99943.39;103100;1321;25941;-79
2021/12/20 08:27:49;;;;;;;2.40;2.10;;;;;;;1.78;76.85;99943.30;103056;1319;25248;-78
2021/12/20 08:30:17;;;;;;;2.00;1.60;;;;;;;1.75;76.88;99944.98;103132;1321;23141;-78
2021/12/20 08:32:44;;;;;;;4.40;2.20;;;;;;;1.67;76.89;99945.86;103090;1320;22613;-79
2021/12/20 08:35:12;;;;;;;6.90;2.90;;;;;;;1.60;77.09;99955.12;103033;1321;24395;-78
2021/12/20 08:37:40;;;;;;;3.30;2.90;;;;;;;1.57;77.35;99951.41;102988;1318;22584;-79
2021/12/20 08:40:13;;;;;;;5.40;3.00;;;;;;;1.48;77.37;99958.52;102971;1321;24360;-77
2021/12/20 08:42:41;;;;;;;3.90;2.90;;;;;;;1.35;77.59;99957.38;103176;1317;22589;-79
2021/12/20 08:45:10;;;;;;;4.50;2.40;;;;;;;1.29;77.86;99960.91;103388;1315;25550;-79
2021/12/20 08:47:37;;;;;;;2.50;1.90;;;;;;;1.25;77.97;99959.94;103713;1317;22784;-79
2021/12/20 08:50:08;;;;;;;2.00;1.70;;;;;;;1.20;77.78;99962.25;103610;1316;24029;-79
2021/12/20 08:52:35;;;;;;;5.40;2.70;;;;;;;1.12;78.09;99966.77;103655;1317;24200;-81
2021/12/20 08:55:03;;;;;;;5.20;2.80;;;;;;;1.12;78.23;99967.79;103570;1314;25219;-78
2021/12/20 08:57:30;;;;;;;3.70;2.40;;;;;;;1.12;78.44;99973.70;103737;1315;22786;-76
2021/12/20 08:59:57;;;;;;;5.80;1.80;;;;;;;1.17;78.42;99973.45;103178;1322;25704;-79
2021/12/20 09:02:24;;;;;;;2.60;2.10;;;;;;;1.15;78.25;99978.79;103139;1322;25733;-79
2021/12/20 09:04:51;;;;;;;3.10;1.90;;;;;;;1.06;78.36;99986.92;103181;1322;22664;-79
2021/12/20 09:07:18;;;;;;;2.60;2.20;;;;;;;1.01;78.68;99984.19;103360;1320;22590;-77
2021/12/20 09:09:47;;;;;;;3.90;2.30;;;;;;;0.94;78.74;99988.73;103180;1321;26526;-78
2021/12/20 09:12:18;;;;;;;4.20;2.20;;;;;;;0.91;78.71;100000.45;103324;1321;22657;-78
2021/12/20 09:14:46;;;;;;;1.50;1.40;;;;;;;0.91;78.80;100010.86;103192;1317;23071;-79
2021/12/20 09:17:14;;;;;;;1.30;1.20;;;;;;;0.92;78.62;100009.48;103107;1322;25253;-78
2021/12/20 09:19:41;;;;;;;2.40;1.00;;;;;;;0.92;78.60;100004.27;103522;1317;24284;-79
2021/12/20 09:22:11;;;;;;;1.40;1.20;;;;;;;0.93;78.54;100010.55;103541;1317;22555;-79
2021/12/20 09:24:40;;;;;;;1.30;1.10;;;;;;;1.01;78.67;100014.19;103765;1317;22596;-79
2021/12/20 09:27:08;;;;;;;1.50;0.90;;;;;;;1.02;78.11;100018.02;104154;1317;25213;-79
2021/12/20 09:29:36;;;;;;;0.90;0.90;;;;;;;0.96;77.94;100024.33;104656;1317;22603;-77
2021/12/20 09:32:04;;;;;;;1.40;0.90;;;;;;;1.02;78.29;100022.55;104528;1315;22727;-77
2021/12/20 09:34:32;;;;;;;1.00;0.90;;;;;;;1.04;78.04;100021.89;104054;1315;24208;-83
2021/12/20 09:37:04;;;;;;;0.90;0.90;;;;;;;1.05;77.96;100027.14;103465;1317;22667;-80
2021/12/20 09:39:33;;;;;;;0.60;0.60;;;;;;;1.06;78.22;100028.54;103662;1312;25265;-76
2021/12/20 09:42:01;;;;;;;0.70;0.70;;;;;;;1.08;78.12;100037.25;103540;1317;22577;-77
2021/12/20 09:44:28;;;;;;;0.60;0.50;;;;;;;1.05;78.01;100032.85;104104;1316;22587;-79
2021/12/20 09:46:59;;;;;;;2.20;0.80;;;;;;;0.95;77.72;100027.77;103369;1316;24436;-78
2021/12/20 09:49:27;;;;;;;0.70;0.70;;;;;;;0.96;77.85;100034.39;103479;1316;25355;-86
2021/12/20 09:51:57;;;;;;;0.80;0.70;;;;;;;0.96;77.96;100045.47;103431;1316;25245;-84
2021/12/20 09:54:25;;;;;;;2.20;1.10;;;;;;;1.01;78.00;100043.17;103782;1316;22587;-82
2021/12/20 09:56:54;;;;;;;0.90;0.80;;;;;;;1.01;77.73;100045.92;103798;1316;25634;-82
2021/12/20 09:59:24;;;;;;;0.80;0.70;;;;;;;0.91;77.78;100042.08;103614;1315;22570;-85
2021/12/20 10:01:52;;;;;;;0.90;0.80;;;;;;;0.87;77.66;100047.34;103494;1317;24352;-79
2021/12/20 10:04:20;;;;;;;1.50;0.90;;;;;;;0.94;78.23;100050.28;103519;1316;25341;-84
2021/12/20 10:06:58;;;;;;;1.10;1.00;;;;;;;1.06;77.97;100050.56;103191;1317;22790;-85
2021/12/20 10:09:31;;;;;;;2.50;1.10;;;;;;;1.09;77.52;100055.33;103474;1317;26521;-84
2021/12/20 10:12:12;;;;;;;2.50;1.60;;;;;;;1.04;77.28;100058.50;103218;1316;22578;-79
2021/12/20 10:15:04;;;;;;;1.20;1.00;;;;;;;1.13;77.68;100060.61;103621;1312;22796;-87
2021/12/20 10:17:32;;;;;;;1.80;1.10;;;;;;;1.24;77.33;100060.00;103598;1317;24222;-87
2021/12/20 10:20:14;;;;;;;1.20;1.10;;;;;;;1.26;77.21;100052.44;103730;1317;22599;-85
2021/12/20 10:22:41;;;;;;;2.40;0.90;;;;;;;1.46;77.16;100060.51;103433;1318;22593;-85
2021/12/20 10:25:29;;;;;;;3.20;1.00;;;;;;;1.53;76.53;100057.91;102952;1325;22546;-88
2021/12/20 10:28:18;;;;;;;2.40;1.50;;;;;;;1.63;76.51;100054.97;103149;1322;22953;-78
2021/12/20 10:30:49;;;;;;;3.00;1.50;;;;;;;1.75;76.10;100052.99;103193;1316;24455;-79
2021/12/20 10:33:21;;;;;;;2.10;1.60;;;;;;;1.98;76.17;100049.12;103155;1322;25045;-86
2021/12/20 10:35:54;;;;;;;3.30;1.70;;;;;;;2.17;75.18;100050.71;103113;1322;22564;-87
2021/12/20 10:38:21;;;;;;;5.00;1.80;;;;;;;2.40;74.98;100052.88;103171;1322;24448;-87
2021/12/20 10:41:01;;;;;;;2.40;1.80;;;;;;;2.61;74.62;100055.71;103419;1315;24803;-79
2021/12/20 10:43:39;;;;;;;4.00;1.40;;;;;;;3.04;74.12;100066.52;104641;1317;26540;-79
2021/12/20 10:46:11;;;;;;;3.30;1.70;;;;;;;3.45;72.81;100069.05;103749;1322;25574;-83
2021/12/20 10:48:46;;;;;;;3.80;1.90;;;;;;;3.80;72.08;100072.16;104933;1321;25306;-83
2021/12/20 10:51:28;;;;;;;1.40;1.30;;;;;;;4.01;70.41;100067.02;103256;1322;25320;-82
2021/12/20 10:54:01;;;;;;;2.40;1.10;;;;;;;3.96;69.14;100072.36;103458;1322;22602;-82
2021/12/20 10:56:31;;;;;;;3.30;1.40;;;;;;;4.17;67.75;100075.75;103310;1320;22605;-83
2021/12/20 10:59:01;;;;;;;1.10;1.00;;;;;;;4.35;67.32;100066.91;102996;1318;25219;-82
2021/12/20 11:04:26;;;;;;;2.50;1.00;;;;;;;4.17;65.62;100076.81;103272;1318;24214;-83
2021/12/20 11:09:39;;;;;;;1.30;1.10;;;;;;;3.82;63.34;100082.11;103250;1322;25385;-82
2021/12/20 11:12:11;;;;;;;2.60;0.90;;;;;;;3.69;64.09;100080.20;103168;1319;25629;-82
2021/12/20 11:14:44;;;;;;;1.30;0.90;;;;;;;3.70;63.82;100086.14;103133;1322;23430;-82
2021/12/20 11:17:17;;;;;;;1.50;1.00;;;;;;;3.67;62.37;100081.73;103100;1321;24255;-82
2021/12/20 11:19:49;;;;;;;1.70;1.20;;;;;;;3.45;61.79;100095.52;103064;1321;22573;-85
2021/12/20 11:22:36;;;;;;;1.30;0.70;;;;;;;3.29;61.78;100098.41;103097;1322;22607;-84
2021/12/20 11:25:08;;;;;;;1.40;0.80;;;;;;;3.31;62.21;100100.54;102936;1322;22609;-83
2021/12/20 11:27:37;;;;;;;1.40;0.90;;;;;;;3.37;61.11;100102.38;103258;1319;25358;-83
2021/12/20 11:30:26;;;;;;;1.00;0.70;;;;;;;3.35;60.77;100097.28;103594;1316;25313;-84
2021/12/20 11:32:55;;;;;;;0.90;0.50;;;;;;;3.81;59.79;100095.16;103661;1317;25703;-83
2021/12/20 11:35:24;;;;;;;0.80;0.60;;;;;;;4.23;59.47;100095.53;103513;1317;25438;-81
2021/12/20 11:37:51;;;;;;;1.10;1.00;;;;;;;4.74;58.68;100096.79;103811;1316;22683;-83
2021/12/20 11:40:20;;;;;;;1.20;0.70;;;;;;;4.88;57.55;100093.77;103635;1320;23976;-83
2021/12/20 11:42:50;;;;;;;1.30;0.60;;;;;;;4.82;55.99;100097.05;104558;1320;22755;-83
2021/12/20 11:45:19;;;;;;;2.10;0.90;;;;;;;4.73;56.14;100104.80;103730;1321;22872;-82
2021/12/20 11:47:59;;;;;;;0.80;0.80;;;;;;;4.89;56.61;100108.45;103370;1320;23973;-85
2021/12/20 11:50:34;;;;;;;1.80;1.00;;;;;;;5.16;57.04;100116.19;103348;1321;24162;-83
2021/12/20 11:53:13;;;;;;;2.80;1.00;;;;;;;5.30;56.02;100116.66;103159;1322;24155;-83
2021/12/20 11:55:50;;;;;;;0.60;0.60;;;;;;;4.98;55.42;100104.34;103376;1320;23166;-86
2021/12/20 11:58:30;;;;;;;2.00;1.20;;;;;;;4.43;54.13;100118.94;103718;1316;22710;-81
2021/12/20 12:01:05;;;;;;;1.40;0.80;;;;;;;3.90;55.34;100131.70;104641;1317;22581;-84